M I D A S
Marine Information and Data Acquisition System
Tripno 1666 of the Zeeleeuw from 2009-03-27 07:38:46 to 2009-03-27 11:29:19
Back to CruiseResearch ActivitiesStationsMapUnderway DataData graphs

EquipmentUnitsComment
TimeDGPSUTC
LatitudeDGPSDM.mWGS84
LongitudeDGPSDM.mWGS84
TemperatureSBE03/SBE38deg celciusITS90
ConductivitySBE21S/mITS90
SalinitySBE21 Practical Salinity Units
ChlorophylAChelsea fluorimeterg/lCalibrated in Aceton
Missing or incorrect values are displayed as -999
Sea surface data collected by the RV Zeeleeuw from 2009-03-27 07:39:53 to 2009-03-27 11:41:38
Time Latitude Longitude Temperature Conductivity Salinity ChlorophylA
2009-03-27 07:41:02 51°13.681 2°55.888 -999 0.092634 0.513336 -1.035392
2009-03-27 07:42:02 51°13.693 2°55.801 -999 0.094281 0.522849 -1.035392
2009-03-27 07:43:00 51°13.697 2°55.767 -999 0.098706 0.548467 -1.035392
2009-03-27 07:44:00 51°13.701 2°55.767 -999 0.092634 0.51318 -1.035392
2009-03-27 07:45:01 51°13.71 2°55.757 -999 0.096751 0.537028 -1.070216
2009-03-27 07:45:59 51°13.761 2°55.702 -999 0.081211 0.447523 -1.070216
2009-03-27 07:46:58 51°13.872 2°55.605 -999 0.078226 0.430474 -1.035392
2009-03-27 07:48:00 51°14.014 2°55.501 -999 0.067935 0.372051 -1.070216
2009-03-27 07:48:59 51°14.152 2°55.397 -999 0.071743 0.393695 -1.035392
2009-03-27 07:49:58 51°14.271 2°55.25 -999 0.053528 0.291081 -1.070216
2009-03-27 07:50:58 51°14.379 2°55.068 -999 0.051675 0.280759 -1.035392
2009-03-27 07:51:58 51°14.43 2°54.854 -999 0.044163 0.239991 -1.035392
2009-03-27 07:52:58 51°14.382 2°54.603 -999 0.044575 0.243071 -1.035392
2009-03-27 07:53:58 51°14.314 2°54.32 -999 0.05044 0.276522 -1.035392
2009-03-27 07:54:58 51°14.226 2°54.035 -999 0.047765 0.261641 -1.035392
2009-03-27 07:55:58 51°14.135 2°53.753 -999 0.049617 0.272162 -1.035392
2009-03-27 07:56:58 51°14.045 2°53.468 -999 0.054763 0.301186 -1.035392
2009-03-27 07:57:58 51°13.953 2°53.181 -999 0.060937 0.336306 -1.000568
2009-03-27 07:58:58 51°13.861 2°52.89 -999 0.05538 0.304856 -1.000568
2009-03-27 07:59:58 51°13.768 2°52.603 -999 0.056512 0.31123 -1.035392
2009-03-27 08:00:58 51°13.677 2°52.314 -999 0.052293 0.287467 -1.035392
2009-03-27 08:01:58 51°13.589 2°52.021 -999 0.056615 0.311964 -1.035392
2009-03-27 08:02:58 51°13.499 2°51.742 -999 0.053939 0.296927 -1.035392
2009-03-27 08:03:58 51°13.376 2°51.576 -999 0.05857 0.323198 -1.035392
2009-03-27 08:04:58 51°13.343 2°51.464 -999 0.055483 0.305754 -1.000568
2009-03-27 08:05:58 51°13.346 2°51.425 -999 0.039429 0.215608 -1.035392
2009-03-27 08:06:58 51°13.34 2°51.42 -999 0.033872 0.184744 -1.10504
2009-03-27 08:07:58 51°13.33 2°51.417 -999 0.04653 0.255317 -1.10504
2009-03-27 08:08:58 51°13.317 2°51.417 -999 0.042928 0.235141 -1.10504
2009-03-27 08:09:58 51°13.302 2°51.417 -999 0.039018 0.213322 -1.10504
2009-03-27 08:10:58 51°13.301 2°51.416 -999 0.037783 0.206469 -1.10504
2009-03-27 08:11:58 51°13.319 2°51.406 -999 0.036445 0.199098 -1.10504
2009-03-27 08:12:58 51°13.335 2°51.391 -999 0.037371 0.204259 -1.10504
2009-03-27 08:13:58 51°13.347 2°51.374 -999 0.036548 0.199717 -1.10504
2009-03-27 08:14:58 51°13.357 2°51.361 -999 0.035519 0.194043 -1.10504
2009-03-27 08:15:58 51°13.367 2°51.345 -999 0.033769 0.184376 -1.10504
2009-03-27 08:16:58 51°13.376 2°51.33 -999 0.035827 0.195834 -1.139864
2009-03-27 08:17:58 51°13.386 2°51.313 -999 0.034387 0.18793 -1.10504
2009-03-27 08:18:58 51°13.394 2°51.305 -999 0.034181 0.186834 -1.10504
2009-03-27 08:19:58 51°13.389 2°51.303 -999 0.034078 0.186352 -1.10504
2009-03-27 08:20:58 51°13.379 2°51.305 -999 0.037165 0.203564 -1.10504
2009-03-27 08:21:58 51°13.366 2°51.306 -999 0.036959 0.202451 -1.10504
2009-03-27 08:22:58 51°13.352 2°51.306 -999 0.033769 0.184804 -1.10504
2009-03-27 08:23:58 51°13.34 2°51.307 -999 0.035313 0.193498 -1.10504
2009-03-27 08:24:58 51°13.328 2°51.307 -999 0.035416 0.194032 -1.10504
2009-03-27 08:25:58 51°13.318 2°51.307 -999 0.033564 0.183814 -1.10504
2009-03-27 08:26:58 51°13.308 2°51.306 -999 0.035004 0.191857 -1.10504
2009-03-27 08:27:58 51°13.298 2°51.306 -999 0.034696 0.190222 -1.10504
2009-03-27 08:28:58 51°13.287 2°51.308 -999 0.033872 0.185644 -1.10504
2009-03-27 08:29:58 51°13.274 2°51.309 -999 0.033769 0.185108 -1.10504
2009-03-27 08:30:58 51°13.26 2°51.31 -999 0.034387 0.188593 -1.10504
2009-03-27 08:31:58 51°13.245 2°51.309 -999 0.03521 0.193225 -1.10504
2009-03-27 08:32:58 51°13.23 2°51.31 -999 0.03202 0.175573 -1.10504
2009-03-27 08:33:58 51°13.216 2°51.31 -999 0.035313 0.193913 -1.10504
2009-03-27 08:34:58 51°13.204 2°51.307 -999 0.036033 0.197977 -1.10504
2009-03-27 08:35:58 51°13.192 2°51.306 -999 0.034284 0.188284 -1.139864
2009-03-27 08:36:58 51°13.187 2°51.303 -999 0.033975 0.18672 -1.10504
2009-03-27 08:37:58 51°13.204 2°51.273 -999 0.035622 0.195909 -1.10504
2009-03-27 08:38:58 51°13.202 2°51.196 -999 0.037474 0.206309 -1.139864
2009-03-27 08:39:58 51°13.166 2°51.15 -999 0.044266 0.244693 -1.139864
2009-03-27 08:40:58 51°13.13 2°51.097 -999 0.048074 0.2663 -1.10504
2009-03-27 08:41:58 51°13.094 2°51.021 -999 0.050338 0.279238 -1.10504
2009-03-27 08:42:58 51°13.057 2°50.943 -999 0.046736 0.258854 -1.10504
2009-03-27 08:43:58 51°13.019 2°50.868 -999 0.050852 0.282284 -1.10504
2009-03-27 08:44:58 51°12.98 2°50.791 -999 0.048691 0.269965 -1.10504
2009-03-27 08:45:58 51°12.942 2°50.721 -999 0.048279 0.267684 -1.10504
2009-03-27 08:46:58 51°12.909 2°50.658 -999 0.049411 0.274217 -1.139864
2009-03-27 08:47:58 51°12.876 2°50.596 -999 0.056101 0.312691 -1.139864
2009-03-27 08:48:58 51°12.846 2°50.534 -999 0.050441 0.280394 -1.139864
2009-03-27 08:49:58 51°12.817 2°50.472 -999 0.051675 0.287524 -1.139864
2009-03-27 08:50:58 51°12.787 2°50.414 -999 0.054557 0.304123 -1.10504
2009-03-27 08:51:58 51°12.759 2°50.354 -999 0.050543 0.281189 -1.139864
2009-03-27 08:52:58 51°12.732 2°50.294 -999 0.051058 0.284384 -1.10504
2009-03-27 08:53:58 51°12.702 2°50.238 -999 0.054351 0.303169 -1.10504
2009-03-27 08:54:58 51°12.675 2°50.187 -999 0.052293 0.291511 -1.10504
2009-03-27 08:55:58 51°12.647 2°50.135 -999 0.057335 0.320697 -1.139864
2009-03-27 08:56:58 51°12.62 2°50.074 -999 0.048794 0.271959 -1.139864
2009-03-27 08:57:58 51°12.593 2°50.014 -999 0.054866 0.306895 -1.139864
2009-03-27 08:58:58 51°12.568 2°49.961 -999 0.05291 0.29582 -1.10504
2009-03-27 08:59:58 51°12.546 2°49.906 -999 0.046633 0.260147 -1.139864
2009-03-27 09:00:58 51°12.519 2°49.848 -999 0.046839 0.261347 -1.139864
2009-03-27 09:01:58 51°12.484 2°49.789 -999 0.050543 0.282621 -1.139864
2009-03-27 09:02:58 51°12.455 2°49.727 -999 0.045295 0.252753 -1.10504
2009-03-27 09:03:58 51°12.45 2°49.663 -999 0.04334 0.24204 -1.10504
2009-03-27 09:04:58 51°12.44 2°49.551 -999 0.042105 0.234781 -1.139864
2009-03-27 09:05:58 51°12.383 2°49.32 -999 0.044678 0.249975 -1.10504
2009-03-27 09:06:58 51°12.307 2°49.037 -999 0.049206 0.276043 -1.10504
2009-03-27 09:07:58 51°12.231 2°48.749 -999 0.049823 0.279751 -1.10504
2009-03-27 09:08:58 51°12.158 2°48.464 -999 0.045192 0.253479 -1.10504
2009-03-27 09:09:58 51°12.085 2°48.171 -999 0.048279 0.271246 -1.10504
2009-03-27 09:10:58 51°12.012 2°47.878 -999 0.043134 0.241969 -1.139864
2009-03-27 09:11:58 51°11.938 2°47.584 -999 0.049 0.275928 -1.10504
2009-03-27 09:12:58 51°11.863 2°47.295 -999 0.048691 0.274337 -1.139864
2009-03-27 09:13:58 51°11.787 2°47.005 -999 0.052499 0.296512 -1.10504
2009-03-27 09:14:58 51°11.712 2°46.716 -999 0.050646 0.28598 -1.10504
2009-03-27 09:15:58 51°11.638 2°46.427 -999 0.046427 0.26197 -1.139864
2009-03-27 09:16:58 51°11.565 2°46.137 -999 0.060114 0.341954 -1.10504
2009-03-27 09:17:58 51°11.492 2°45.847 -999 0.054969 0.312207 -1.10504
2009-03-27 09:18:58 51°11.418 2°45.559 -999 0.049617 0.281178 -1.10504
2009-03-27 09:19:58 51°11.344 2°45.267 -999 0.043237 0.244313 -1.10504
2009-03-27 09:20:58 51°11.271 2°44.978 -999 0.053734 0.305938 -1.139864
2009-03-27 09:21:59 51°11.196 2°44.685 -999 0.064128 0.367155 -1.139864
2009-03-27 09:22:59 51°11.124 2°44.397 -999 0.057747 0.329831 -1.139864
2009-03-27 09:23:58 51°11.053 2°44.113 -999 0.054351 0.310188 -1.139864
2009-03-27 09:24:58 51°10.981 2°43.818 -999 0.049103 0.279584 -1.139864
2009-03-27 09:25:58 51°10.908 2°43.526 -999 0.046942 0.267535 -1.10504
2009-03-27 09:26:58 51°10.832 2°43.235 -999 0.043649 0.248501 -1.139864
2009-03-27 09:27:58 51°10.759 2°42.945 -999 0.048074 0.274612 -1.10504
2009-03-27 09:28:58 51°10.685 2°42.656 -999 0.052705 0.302018 -1.139864
2009-03-27 09:29:58 51°10.612 2°42.366 -999 0.04828 0.276243 -1.10504
2009-03-27 09:30:58 51°10.541 2°42.076 -999 0.045192 0.258409 -1.10504
2009-03-27 09:31:59 51°10.459 2°41.789 -999 0.052087 0.299111 -1.139864
2009-03-27 09:32:59 51°10.363 2°41.517 -999 0.048074 0.27578 -1.139864
2009-03-27 09:33:58 51°10.267 2°41.253 -999 0.046016 0.263922 -1.139864
2009-03-27 09:34:59 51°10.172 2°40.978 -999 0.045707 0.262384 -1.139864
2009-03-27 09:35:58 51°10.079 2°40.714 -999 0.052087 0.300172 -1.139864
2009-03-27 09:36:58 51°9.987 2°40.442 -999 0.047765 0.274868 -1.139864
2009-03-27 09:37:58 51°9.892 2°40.172 -999 0.046324 0.266748 -1.139864
2009-03-27 09:38:58 51°9.797 2°39.9 -999 0.046633 0.268719 -1.139864
2009-03-27 09:39:58 51°9.703 2°39.632 -999 0.061658 0.358703 -1.139864
2009-03-27 09:40:58 51°9.616 2°39.359 -999 0.053219 0.30844 -1.10504
2009-03-27 09:41:58 51°9.537 2°39.081 -999 0.054557 0.316979 -1.139864
2009-03-27 09:42:59 51°9.465 2°38.792 -999 0.046736 0.270398 -1.10504
2009-03-27 09:43:58 51°9.396 2°38.515 -999 0.049309 0.286023 -1.139864
2009-03-27 09:44:58 51°9.327 2°38.235 -999 0.052087 0.302942 -1.139864
2009-03-27 09:45:59 51°9.263 2°37.953 -999 0.04509 0.261307 -1.139864
2009-03-27 09:46:58 51°9.211 2°37.739 -999 0.04334 0.251256 -1.10504
2009-03-27 09:47:58 51°9.171 2°37.53 -999 0.04828 0.280858 -1.139864
2009-03-27 09:48:58 51°9.148 2°37.324 -999 0.041385 0.24006 -1.139864
2009-03-27 09:49:58 51°9.136 2°37.224 -999 0.055895 0.327048 -1.139864
2009-03-27 09:50:58 51°9.149 2°37.213 -999 0.049103 0.28637 -1.139864
2009-03-27 09:51:58 51°9.156 2°37.225 -999 0.036342 0.210435 -1.139864
2009-03-27 09:52:58 51°9.155 2°37.244 -999 0.03696 0.21417 -1.139864
2009-03-27 09:53:58 51°9.152 2°37.263 -999 0.036137 0.209723 -1.139864
2009-03-27 09:54:58 51°9.147 2°37.282 -999 0.036034 0.209119 -1.139864
2009-03-27 09:55:58 51°9.142 2°37.302 -999 0.033358 0.193454 -1.139864
2009-03-27 09:56:58 51°9.156 2°37.322 -999 0.033049 0.191627 -1.139864
2009-03-27 09:57:58 51°9.184 2°37.334 -999 0.034387 0.199764 -1.139864
2009-03-27 09:58:58 51°9.213 2°37.335 -999 0.03202 0.185927 -1.139864
2009-03-27 09:59:58 51°9.243 2°37.329 -999 0.031094 0.180579 -1.139864
2009-03-27 10:00:58 51°9.267 2°37.325 -999 0.033255 0.193507 -1.139864
2009-03-27 10:01:58 51°9.28 2°37.33 -999 0.031403 0.182673 -1.139864
2009-03-27 10:02:58 51°9.282 2°37.349 -999 0.033255 0.193727 -1.139864
2009-03-27 10:03:58 51°9.281 2°37.375 -999 0.031712 0.18474 -1.139864
2009-03-27 10:04:58 51°9.276 2°37.4 -999 0.034593 0.201988 -1.070216
2009-03-27 10:05:58 51°9.269 2°37.425 -999 0.03202 0.186831 -1.070216
2009-03-27 10:06:58 51°9.262 2°37.45 -999 0.034696 0.202824 -1.10504
2009-03-27 10:07:58 51°9.258 2°37.475 -999 0.034078 0.199248 -1.10504
2009-03-27 10:08:58 51°9.253 2°37.502 -999 0.033461 0.195686 -1.070216
2009-03-27 10:09:58 51°9.25 2°37.53 -999 0.034696 0.203193 -1.10504
2009-03-27 10:10:58 51°9.246 2°37.56 -999 0.033667 0.197156 -1.070216
2009-03-27 10:11:58 51°9.242 2°37.589 -999 0.032432 0.189892 -1.10504
2009-03-27 10:12:58 51°9.237 2°37.62 -999 0.035108 0.206085 -1.10504
2009-03-27 10:13:58 51°9.232 2°37.653 -999 0.033049 0.193899 -1.10504
2009-03-27 10:14:58 51°9.228 2°37.685 -999 0.033461 0.196455 -1.070216
2009-03-27 10:15:58 51°9.223 2°37.718 -999 0.031712 0.186085 -1.070216
2009-03-27 10:16:58 51°9.224 2°37.753 -999 0.032535 0.191279 -1.070216
2009-03-27 10:17:58 51°9.272 2°37.811 -999 0.034078 0.200435 -1.10504
2009-03-27 10:18:58 51°9.276 2°37.928 -999 0.038298 0.225877 -1.10504
2009-03-27 10:19:58 51°9.258 2°38.019 -999 0.042208 0.249782 -1.10504
2009-03-27 10:20:58 51°9.237 2°38.094 -999 0.049618 0.295078 -1.10504
2009-03-27 10:21:58 51°9.218 2°38.167 -999 0.051985 0.309637 -1.070216
2009-03-27 10:22:58 51°9.202 2°38.249 -999 0.053117 0.316776 -1.10504
2009-03-27 10:23:58 51°9.193 2°38.343 -999 0.053528 0.319332 -1.070216
2009-03-27 10:24:58 51°9.196 2°38.442 -999 0.049412 0.294279 -1.070216
2009-03-27 10:25:58 51°9.213 2°38.537 -999 0.047354 0.281801 -1.070216
2009-03-27 10:26:58 51°9.24 2°38.618 -999 0.040973 0.242891 -1.070216
2009-03-27 10:27:58 51°9.272 2°38.691 -999 0.03521 0.208071 -1.070216
2009-03-27 10:28:58 51°9.308 2°38.758 -999 0.030168 0.177809 -1.10504
2009-03-27 10:29:58 51°9.346 2°38.823 -999 0.032638 0.192756 -1.070216
2009-03-27 10:30:58 51°9.382 2°38.892 -999 0.029859 0.176148 -1.070216
2009-03-27 10:31:58 51°9.418 2°38.976 -999 0.0313 0.185002 -1.10504
2009-03-27 10:32:58 51°9.446 2°39.078 -999 0.033049 0.195609 -1.070216
2009-03-27 10:33:58 51°9.473 2°39.183 -999 0.035108 0.208166 -1.070216
2009-03-27 10:34:58 51°9.511 2°39.275 -999 0.030374 0.179643 -1.070216
2009-03-27 10:35:58 51°9.555 2°39.349 -999 0.034181 0.202757 -1.070216
2009-03-27 10:36:58 51°9.6 2°39.413 -999 0.030477 0.180442 -1.070216
2009-03-27 10:37:58 51°9.642 2°39.49 -999 0.03058 0.181102 -1.10504
2009-03-27 10:38:59 51°9.666 2°39.591 -999 0.033152 0.196802 -1.10504
2009-03-27 10:39:59 51°9.689 2°39.689 -999 0.034181 0.203097 -1.070216
2009-03-27 10:40:59 51°9.72 2°39.784 -999 0.03202 0.190034 -1.070216
2009-03-27 10:41:59 51°9.755 2°39.864 -999 0.029036 0.172139 -1.10504
2009-03-27 10:42:59 51°9.794 2°39.926 -999 0.029139 0.172834 -1.10504
2009-03-27 10:43:59 51°9.869 2°40.044 -999 0.033564 0.199736 -1.070216
2009-03-27 10:44:59 51°9.957 2°40.26 -999 0.057645 0.348367 -1.070216
2009-03-27 10:45:59 51°10.063 2°40.527 -999 0.043752 0.262414 -1.070216
2009-03-27 10:46:59 51°10.168 2°40.825 -999 0.052088 0.31423 -1.070216
2009-03-27 10:47:59 51°10.259 2°41.143 -999 0.043546 0.261381 -1.070216
2009-03-27 10:48:59 51°10.34 2°41.464 -999 0.114557 0.713303 -1.070216
2009-03-27 10:49:59 51°10.429 2°41.781 -999 0.039738 0.238279 -1.070216
2009-03-27 10:50:59 51°10.521 2°42.095 -999 0.056101 0.339796 -1.070216
2009-03-27 10:51:59 51°10.61 2°42.409 -999 0.115792 0.721967 -1.070216
2009-03-27 10:52:59 51°10.696 2°42.729 -999 0.065157 0.397195 -1.070216
2009-03-27 10:53:59 51°10.785 2°43.049 -999 0.050544 0.305599 -1.070216
2009-03-27 10:54:59 51°10.876 2°43.368 -999 0.04756 0.287106 -1.070216
2009-03-27 10:55:59 51°10.965 2°43.686 -999 0.135965 0.855398 -1.070216
2009-03-27 10:56:59 51°11.057 2°44.008 -999 0.044472 0.268166 -1.070216
2009-03-27 10:57:59 51°11.144 2°44.33 -999 0.066907 0.408806 -1.070216
2009-03-27 10:59:00 51°11.236 2°44.66 -999 0.194736 1.248366 -1.070216
2009-03-27 10:59:59 51°11.329 2°44.972 -999 0.081006 0.498741 -1.070216
2009-03-27 11:00:59 51°11.422 2°45.293 -999 0.045501 0.274834 -1.070216
2009-03-27 11:01:59 51°11.518 2°45.611 -999 0.142758 0.901991 -1.070216
2009-03-27 11:02:59 51°11.615 2°45.931 -999 0.051264 0.31097 -1.035392
2009-03-27 11:03:59 51°11.709 2°46.256 -999 0.041488 0.250156 -1.035392
2009-03-27 11:04:59 51°11.802 2°46.575 -999 0.084814 0.524006 -1.035392
2009-03-27 11:05:59 51°11.891 2°46.902 -999 0.04262 0.257307 -1.035392
2009-03-27 11:06:59 51°11.985 2°47.226 -999 0.095106 0.590718 -1.070216
2009-03-27 11:07:59 51°12.078 2°47.552 -999 0.097576 0.60683 -1.070216
2009-03-27 11:08:59 51°12.171 2°47.882 -999 0.052808 0.321035 -1.035392
2009-03-27 11:09:59 51°12.27 2°48.209 -999 0.047765 0.289537 -1.035392
2009-03-27 11:10:59 51°12.372 2°48.531 -999 0.042311 0.255678 -1.000568
2009-03-27 11:11:59 51°12.47 2°48.86 -999 0.068554 0.420696 -1.035392
2009-03-27 11:12:59 51°12.569 2°49.187 -999 0.041488 0.25066 -1.035392
2009-03-27 11:13:59 51°12.667 2°49.518 -999 0.047663 0.289112 -1.035392
2009-03-27 11:14:59 51°12.768 2°49.845 -999 0.066084 0.405292 -1.035392
2009-03-27 11:15:59 51°12.867 2°50.173 -999 0.061556 0.376623 -1.035392
2009-03-27 11:16:59 51°12.993 2°50.481 -999 0.044061 0.266766 -1.035392
2009-03-27 11:17:59 51°13.13 2°50.78 -999 0.044987 0.272636 -1.035392
2009-03-27 11:18:59 51°13.261 2°51.085 -999 0.067422 0.414001 -1.035392
2009-03-27 11:19:59 51°13.392 2°51.39 -999 0.086255 0.534865 -1.035392
2009-03-27 11:20:59 51°13.52 2°51.7 -999 0.042517 0.257406 -1.035392
2009-03-27 11:21:59 51°13.647 2°52.01 -999 0.068142 0.41888 -1.035392
2009-03-27 11:22:59 51°13.779 2°52.319 -999 0.041591 0.251729 -1.035392
2009-03-27 11:23:59 51°13.91 2°52.628 -999 0.095723 0.596599 -1.035392
2009-03-27 11:24:59 51°14.04 2°52.937 -999 0.058159 0.355661 -1.035392
2009-03-27 11:25:59 51°14.168 2°53.253 -999 0.046633 0.283283 -1.000568
2009-03-27 11:26:59 51°14.287 2°53.576 -999 0.042105 0.255065 -1.035392
2009-03-27 11:27:59 51°14.396 2°53.9 -999 0.049 0.298168 -1.000568
2009-03-27 11:28:59 51°14.484 2°54.24 -999 0.040871 0.247527 -1.000568
2009-03-27 11:29:59 51°14.49 2°54.599 -999 0.043443 0.263572 -1.000568
2009-03-27 11:30:59 51°14.417 2°54.926 -999 0.055587 0.339691 -1.035392
2009-03-27 11:31:59 51°14.302 2°55.19 -999 0.065466 0.402315 -1.035392
2009-03-27 11:32:59 51°14.192 2°55.346 -999 0.070097 0.431858 -1.035392
2009-03-27 11:33:59 51°14.101 2°55.425 -999 0.061556 0.377493 -1.035392
2009-03-27 11:34:59 51°13.998 2°55.506 -999 0.048897 0.297657 -1.000568
2009-03-27 11:36:00 51°13.881 2°55.593 -999 0.050338 0.306703 -1.035392
2009-03-27 11:36:59 51°13.775 2°55.686 -999 0.062173 0.381388 -0.861272
2009-03-27 11:37:59 51°13.707 2°55.807 -999 0.055793 0.340983 -0.861272
2009-03-27 11:39:03 51°13.671 2°55.915 -999 0.058674 0.359335 -0.896096
2009-03-27 11:40:03 51°13.664 2°55.955 -999 0.062585 0.384232 -0.896096
2009-03-27 11:41:03 51°13.663 2°55.96 -999 0.050441 0.307507 -0.896096